createdAt,value
2023-04-30T00:02:29.368Z,5.53
2023-04-30T00:05:32.780Z,9.70
2023-04-30T00:08:37.094Z,8.57
2023-04-30T00:11:40.164Z,9.33
2023-04-30T00:14:43.177Z,10.70
2023-04-30T00:17:46.256Z,8.90
2023-04-30T00:20:51.863Z,8.10
2023-04-30T00:23:56.272Z,8.67
2023-04-30T00:26:59.276Z,7.93
2023-04-30T00:30:02.313Z,7.40
2023-04-30T00:33:06.932Z,7.47
2023-04-30T00:36:09.942Z,8.80
2023-04-30T00:39:14.266Z,6.33
2023-04-30T00:42:20.018Z,7.50
2023-04-30T00:45:24.675Z,10.47
2023-04-30T00:48:28.839Z,7.93
2023-04-30T00:51:33.900Z,8.73
2023-04-30T00:54:38.488Z,8.17
2023-04-30T00:57:41.908Z,12.13
2023-04-30T01:00:47.145Z,6.90
2023-04-30T01:03:50.488Z,7.77
2023-04-30T01:06:53.678Z,5.97
2023-04-30T01:09:58.498Z,9.90
2023-04-30T01:13:11.530Z,7.33
2023-04-30T01:16:20.669Z,12.17
2023-04-30T01:19:40.229Z,6.53
2023-04-30T01:22:52.003Z,8.37
2023-04-30T01:26:14.430Z,6.70
2023-04-30T01:29:23.225Z,6.57
2023-04-30T01:32:26.738Z,6.27
2023-04-30T01:35:45.685Z,10.07
2023-04-30T01:39:19.354Z,8.60
2023-04-30T01:42:24.511Z,10.27
2023-04-30T01:46:03.265Z,7.00
2023-04-30T01:49:18.590Z,7.73
2023-04-30T01:52:33.809Z,12.27
2023-04-30T01:55:52.031Z,12.10
2023-04-30T01:58:58.768Z,14.73
2023-04-30T02:02:06.298Z,8.27
2023-04-30T02:05:10.277Z,10.50
2023-04-30T02:08:15.604Z,13.73
2023-04-30T02:11:18.774Z,7.10
2023-04-30T02:14:23.916Z,11.90
2023-04-30T02:17:31.339Z,19.27
2023-04-30T02:20:34.910Z,11.77
2023-04-30T02:23:37.975Z,12.53
2023-04-30T02:26:41.136Z,10.87
2023-04-30T02:29:44.296Z,10.23
2023-04-30T02:32:48.950Z,10.37
2023-04-30T02:35:52.003Z,11.97
2023-04-30T02:38:54.991Z,9.30
2023-04-30T02:41:58.038Z,10.97
2023-04-30T02:45:01.355Z,7.93
2023-04-30T02:48:06.092Z,8.97
2023-04-30T02:51:09.758Z,10.50
2023-04-30T02:54:12.917Z,12.27
2023-04-30T02:57:15.985Z,9.53
2023-04-30T03:00:19.211Z,11.47
2023-04-30T03:03:24.025Z,12.20
2023-04-30T03:06:27.746Z,12.03
2023-04-30T03:09:31.581Z,9.13
2023-04-30T03:12:34.693Z,9.20
2023-04-30T03:15:38.335Z,10.80
2023-04-30T03:18:43.160Z,11.10
2023-04-30T03:21:46.468Z,12.90
2023-04-30T03:24:49.778Z,10.77
2023-04-30T03:27:52.816Z,9.30
2023-04-30T03:30:56.168Z,11.93
2023-04-30T03:34:00.592Z,11.13
2023-04-30T03:37:04.098Z,13.57
2023-04-30T03:40:09.264Z,11.30
2023-04-30T03:43:13.690Z,10.63
2023-04-30T03:46:16.933Z,7.80
2023-04-30T03:49:22.119Z,12.83
2023-04-30T03:52:26.475Z,9.90
2023-04-30T03:55:29.999Z,9.50
2023-04-30T03:58:33.306Z,10.70
2023-04-30T04:01:36.720Z,11.63
2023-04-30T04:04:41.490Z,10.57
2023-04-30T04:07:47.312Z,8.63
2023-04-30T04:10:50.856Z,11.57
2023-04-30T04:13:54.053Z,10.73
2023-04-30T04:17:00.111Z,10.37
2023-04-30T04:20:07.352Z,14.40
2023-04-30T04:23:11.625Z,13.27
2023-04-30T04:26:14.981Z,9.17
2023-04-30T04:29:18.064Z,10.20
2023-04-30T04:32:22.782Z,9.20
2023-04-30T04:35:27.553Z,14.40
2023-04-30T04:38:31.006Z,9.43
2023-04-30T04:41:35.851Z,12.63
2023-04-30T04:44:41.298Z,14.10
2023-04-30T04:47:44.785Z,11.93
2023-04-30T04:50:49.746Z,12.70
2023-04-30T04:53:52.791Z,13.00
2023-04-30T04:56:56.524Z,20.23
2023-04-30T05:00:00.976Z,12.37
2023-04-30T05:03:04.350Z,14.67
2023-04-30T05:06:09.277Z,16.93
2023-04-30T05:09:12.367Z,11.73
2023-04-30T05:12:15.803Z,10.83
2023-04-30T05:15:19.099Z,16.33
2023-04-30T05:18:22.258Z,15.90
2023-04-30T05:21:30.221Z,15.90
2023-04-30T05:24:34.163Z,19.50
2023-04-30T05:27:37.238Z,12.27
2023-04-30T05:30:40.440Z,16.50
2023-04-30T05:33:43.519Z,13.00
2023-04-30T05:36:47.841Z,13.47
2023-04-30T05:39:50.891Z,12.67
2023-04-30T05:42:54.367Z,18.07
2023-04-30T05:45:57.463Z,10.13
2023-04-30T05:49:00.502Z,13.37
2023-04-30T05:52:05.253Z,9.73
2023-04-30T05:55:11.248Z,11.30
2023-04-30T05:58:14.813Z,8.77
2023-04-30T06:01:19.324Z,12.60
2023-04-30T06:04:22.357Z,19.17
2023-04-30T06:07:26.748Z,11.57
2023-04-30T06:10:30.989Z,9.43
2023-04-30T06:13:34.472Z,13.37
2023-04-30T06:16:37.565Z,12.87
2023-04-30T06:19:40.715Z,8.33
2023-04-30T06:22:45.315Z,14.13
2023-04-30T06:25:48.501Z,16.20
2023-04-30T06:28:51.546Z,14.03
2023-04-30T06:31:54.733Z,12.27
2023-04-30T06:34:57.789Z,12.37
2023-04-30T06:38:02.215Z,16.10
2023-04-30T06:41:05.353Z,12.53
2023-04-30T06:44:09.329Z,10.97
2023-04-30T06:47:12.484Z,11.17
2023-04-30T06:50:15.870Z,9.60
2023-04-30T06:53:20.286Z,14.80
2023-04-30T06:56:23.422Z,8.60
2023-04-30T06:59:26.624Z,17.60
2023-04-30T07:02:29.718Z,14.10
2023-04-30T07:05:33.442Z,11.17
2023-04-30T07:08:38.609Z,9.07
2023-04-30T07:11:42.105Z,11.13
2023-04-30T07:14:45.514Z,12.83
2023-04-30T07:17:49.549Z,9.30
2023-04-30T07:20:52.608Z,10.23
2023-04-30T07:23:57.466Z,10.70
2023-04-30T07:27:02.944Z,17.60
2023-04-30T07:30:08.313Z,15.07
2023-04-30T07:33:11.910Z,13.87
2023-04-30T07:36:15.258Z,10.47
2023-04-30T07:39:19.751Z,8.53
2023-04-30T07:42:23.262Z,12.07
2023-04-30T07:45:26.714Z,9.87
2023-04-30T07:48:29.818Z,7.43
2023-04-30T07:51:34.002Z,14.10
2023-04-30T07:54:40.086Z,11.20
2023-04-30T07:57:43.175Z,12.57
2023-04-30T08:00:48.289Z,14.43
2023-04-30T08:03:51.444Z,8.50
2023-04-30T08:06:54.590Z,11.03
2023-04-30T08:09:58.962Z,14.83
2023-04-30T08:13:01.989Z,9.17
2023-04-30T08:16:07.298Z,13.77
2023-04-30T08:19:10.410Z,13.57
2023-04-30T08:22:13.799Z,7.60
2023-04-30T08:25:18.272Z,8.77
2023-04-30T08:28:21.522Z,9.87
2023-04-30T08:31:24.719Z,16.13
2023-04-30T08:34:27.789Z,8.90
2023-04-30T08:37:30.972Z,9.13
2023-04-30T08:40:50.957Z,10.77
2023-04-30T08:43:57.092Z,7.83
2023-04-30T08:47:01.503Z,5.97
2023-04-30T08:50:04.804Z,11.17
2023-04-30T08:53:09.728Z,7.67
2023-04-30T08:56:14.113Z,6.30
2023-04-30T08:59:17.126Z,6.67
2023-04-30T09:02:20.397Z,6.80
2023-04-30T09:05:23.691Z,9.90
2023-04-30T09:08:43.083Z,8.83
2023-04-30T09:11:47.481Z,7.30
2023-04-30T09:15:09.010Z,11.07
2023-04-30T09:18:17.465Z,9.50
2023-04-30T09:21:33.670Z,6.93
2023-04-30T09:24:52.360Z,7.17
2023-04-30T09:28:11.395Z,6.60
2023-04-30T09:31:21.238Z,9.83
2023-04-30T09:34:35.809Z,9.50
2023-04-30T09:37:39.435Z,5.07
2023-04-30T09:40:43.493Z,9.57
2023-04-30T09:43:50.164Z,5.10
2023-04-30T09:46:54.142Z,7.13
2023-04-30T09:49:57.420Z,6.30
2023-04-30T09:53:08.616Z,5.90
2023-04-30T09:56:15.690Z,8.37
2023-04-30T09:59:23.138Z,5.47
2023-04-30T10:02:26.979Z,5.90
2023-04-30T10:05:30.227Z,7.90
2023-04-30T10:08:42.596Z,5.70
2023-04-30T10:11:55.815Z,8.03
2023-04-30T10:15:09.547Z,5.88
2023-04-30T10:18:19.350Z,4.55
2023-04-30T10:21:26.974Z,6.87
2023-04-30T10:24:31.154Z,5.53
2023-04-30T10:27:34.297Z,5.50
2023-04-30T10:30:39.456Z,7.40
2023-04-30T10:33:52.267Z,6.30
2023-04-30T10:37:00.120Z,6.55
2023-04-30T10:40:05.076Z,6.50
2023-04-30T10:43:08.155Z,4.60
2023-04-30T10:46:12.642Z,9.37
2023-04-30T10:49:16.065Z,6.63
2023-04-30T10:52:30.597Z,8.35
2023-04-30T10:55:39.975Z,5.72
2023-04-30T10:58:44.161Z,5.80
2023-04-30T11:02:02.403Z,5.82
2023-04-30T11:05:14.558Z,6.35
2023-04-30T11:08:18.182Z,6.10
2023-04-30T11:11:22.079Z,5.80
2023-04-30T11:14:25.568Z,7.43
2023-04-30T11:17:30.185Z,7.70
2023-04-30T11:20:33.406Z,5.65
2023-04-30T11:23:40.366Z,8.05
2023-04-30T11:27:07.165Z,6.07
2023-04-30T11:30:15.561Z,9.10
2023-04-30T11:33:20.504Z,5.80
2023-04-30T11:36:23.619Z,7.97
2023-04-30T11:39:27.937Z,8.45
2023-04-30T11:42:34.717Z,8.40
2023-04-30T11:45:40.445Z,5.78
2023-04-30T11:48:46.698Z,7.53
2023-04-30T11:51:53.874Z,6.07
2023-04-30T11:55:01.010Z,6.55
2023-04-30T11:58:04.555Z,6.47
2023-04-30T12:01:09.635Z,5.00
2023-04-30T12:04:14.886Z,7.50
2023-04-30T12:07:17.986Z,7.13
2023-04-30T12:10:21.610Z,6.88
2023-04-30T12:13:24.656Z,7.53
2023-04-30T12:16:39.474Z,7.90
2023-04-30T12:19:43.815Z,7.22
2023-04-30T12:22:47.315Z,7.85
2023-04-30T12:25:53.215Z,6.55
2023-04-30T12:28:57.285Z,5.07
2023-04-30T12:32:01.343Z,8.05
2023-04-30T12:35:07.705Z,5.95
2023-04-30T12:38:10.727Z,8.52
2023-04-30T12:41:15.355Z,8.20
2023-04-30T12:44:20.901Z,6.10
2023-04-30T12:47:26.187Z,11.13
2023-04-30T12:50:31.060Z,5.65
2023-04-30T12:53:34.187Z,13.73
2023-04-30T12:56:37.415Z,8.98
2023-04-30T12:59:58.911Z,6.72
2023-04-30T13:03:02.025Z,6.05
2023-04-30T13:06:10.003Z,4.22
2023-04-30T13:09:13.287Z,5.18
2023-04-30T13:12:16.310Z,8.18
2023-04-30T13:15:19.782Z,5.55
2023-04-30T13:18:23.373Z,8.57
2023-04-30T13:21:28.009Z,12.73
2023-04-30T13:24:31.387Z,7.50
2023-04-30T13:27:34.575Z,9.20
2023-04-30T13:30:43.248Z,7.40
2023-04-30T13:33:46.317Z,7.80
2023-04-30T13:36:52.010Z,4.80
2023-04-30T13:39:55.332Z,6.82
2023-04-30T13:42:58.590Z,4.85
2023-04-30T13:46:01.871Z,9.27
2023-04-30T13:49:05.718Z,8.02
2023-04-30T13:52:16.467Z,7.85
2023-04-30T13:55:19.782Z,6.82
2023-04-30T13:58:22.856Z,4.57
2023-04-30T14:01:26.173Z,11.23
2023-04-30T14:04:30.981Z,6.65
2023-04-30T14:07:35.496Z,7.50
2023-04-30T14:10:38.881Z,7.38
2023-04-30T14:13:45.595Z,5.15
2023-04-30T14:16:51.354Z,5.60
2023-04-30T14:19:55.204Z,8.25
2023-04-30T14:23:01.992Z,6.47
2023-04-30T14:26:06.584Z,7.47
2023-04-30T14:29:10.184Z,5.70
2023-04-30T14:32:15.163Z,12.02
2023-04-30T14:35:25.565Z,8.55
2023-04-30T14:38:30.046Z,5.43
2023-04-30T14:41:37.690Z,6.95
2023-04-30T14:44:41.696Z,4.00
2023-04-30T14:53:35.388Z,4.38
2023-04-30T14:56:39.099Z,6.35
2023-04-30T15:01:01.038Z,6.93
2023-04-30T15:04:04.134Z,7.07
2023-04-30T15:07:07.423Z,3.40
2023-04-30T15:10:12.723Z,8.95
2023-04-30T15:13:16.033Z,6.68
2023-04-30T15:16:19.352Z,3.85
2023-04-30T15:19:22.701Z,5.70
2023-04-30T15:22:25.784Z,9.30
2023-04-30T15:25:30.386Z,5.75
2023-04-30T15:28:33.607Z,6.30
2023-04-30T15:31:36.672Z,4.38
2023-04-30T15:34:40.711Z,4.60
2023-04-30T15:37:44.778Z,7.35
2023-04-30T15:40:49.719Z,8.98
2023-04-30T15:43:52.759Z,5.93
2023-04-30T15:46:56.720Z,4.53
2023-04-30T15:49:59.796Z,6.30
2023-04-30T15:53:02.835Z,4.47
2023-04-30T15:56:11.272Z,4.07
2023-04-30T15:59:17.527Z,5.38
2023-04-30T16:02:22.409Z,7.35
2023-04-30T16:05:25.880Z,5.13
2023-04-30T16:08:29.636Z,7.07
2023-04-30T16:11:34.101Z,5.72
2023-04-30T16:14:37.286Z,5.38
2023-04-30T16:17:40.275Z,5.47
2023-04-30T16:20:43.783Z,9.25
2023-04-30T16:23:50.420Z,7.57
2023-04-30T16:26:58.457Z,5.72
2023-04-30T16:30:01.981Z,7.18
2023-04-30T16:33:05.502Z,8.43
2023-04-30T16:36:08.614Z,4.63
2023-04-30T16:39:12.359Z,8.85
2023-04-30T16:42:16.739Z,6.07
2023-04-30T16:45:19.725Z,7.97
2023-04-30T16:48:22.970Z,6.15
2023-04-30T16:51:27.303Z,5.28
2023-04-30T16:54:30.504Z,5.35
2023-04-30T16:57:34.928Z,4.63
2023-04-30T17:00:38.016Z,6.28
2023-04-30T17:03:41.192Z,6.85
2023-04-30T17:06:44.421Z,7.60
2023-04-30T17:09:47.715Z,4.30
2023-04-30T17:12:52.280Z,3.75
2023-04-30T17:16:01.446Z,3.83
2023-04-30T17:19:05.548Z,6.83
2023-04-30T17:22:09.599Z,7.43
2023-04-30T17:25:12.951Z,5.27
2023-04-30T17:28:17.632Z,8.13
2023-04-30T17:31:20.704Z,5.77
2023-04-30T17:34:23.992Z,7.20
2023-04-30T17:37:27.150Z,8.43
2023-04-30T17:40:31.445Z,6.33
2023-04-30T17:43:35.845Z,4.87
2023-04-30T17:46:39.585Z,5.83
2023-04-30T17:49:42.681Z,5.87
2023-04-30T17:52:45.961Z,5.57
2023-04-30T17:55:49.084Z,7.20
2023-04-30T17:58:53.402Z,5.70
2023-04-30T18:01:56.435Z,15.03
2023-04-30T18:04:59.524Z,5.17
2023-04-30T18:08:02.911Z,6.50
2023-04-30T18:11:08.541Z,6.97
2023-04-30T18:14:12.913Z,4.60
2023-04-30T18:17:16.521Z,4.57
2023-04-30T18:20:19.762Z,6.23
2023-04-30T18:23:24.301Z,6.80
2023-04-30T18:26:27.757Z,8.17
2023-04-30T18:29:32.175Z,6.40
2023-04-30T18:32:35.976Z,7.13
2023-04-30T18:35:42.314Z,8.73
2023-04-30T18:38:45.693Z,6.03
2023-04-30T18:41:49.386Z,6.50
2023-04-30T18:44:54.363Z,7.97
2023-04-30T18:47:57.445Z,12.63
2023-04-30T18:51:00.937Z,8.70
2023-04-30T18:54:03.931Z,8.43
2023-04-30T18:57:07.926Z,8.20
2023-04-30T19:00:15.048Z,9.67
2023-04-30T19:03:18.357Z,9.63
2023-04-30T19:06:23.479Z,8.63
2023-04-30T19:09:26.555Z,8.17
2023-04-30T19:12:29.565Z,9.67
2023-04-30T19:15:33.979Z,14.93
2023-04-30T19:18:39.520Z,6.77
2023-04-30T19:21:42.585Z,8.13
2023-04-30T19:24:45.693Z,8.60
2023-04-30T19:27:48.997Z,9.60
2023-04-30T19:30:54.545Z,11.10
2023-04-30T19:34:01.071Z,15.70
2023-04-30T19:37:04.265Z,15.30
2023-04-30T19:40:14.369Z,14.73
2023-04-30T19:43:20.377Z,24.67
2023-04-30T19:46:25.613Z,28.93
2023-04-30T19:49:29.286Z,21.63
2023-04-30T19:52:32.326Z,21.33
2023-04-30T19:55:35.350Z,16.53
2023-04-30T19:58:38.423Z,14.33
2023-04-30T20:01:43.315Z,13.73
2023-04-30T20:04:46.333Z,15.40
2023-04-30T20:07:49.349Z,12.13
2023-04-30T20:10:57.155Z,11.17
2023-04-30T20:14:00.313Z,16.97
2023-04-30T20:17:04.785Z,12.37
2023-04-30T20:20:09.154Z,13.40
2023-04-30T20:23:20.645Z,14.70
2023-04-30T20:26:27.255Z,11.63
2023-04-30T20:29:30.258Z,13.37
2023-04-30T20:32:38.982Z,12.13
2023-04-30T20:35:47.352Z,11.67
2023-04-30T20:38:56.041Z,11.93
2023-04-30T20:41:59.196Z,14.47
2023-04-30T20:45:04.606Z,19.27
2023-04-30T20:48:10.181Z,16.17
2023-04-30T20:51:13.623Z,17.50
2023-04-30T20:54:17.626Z,15.60
2023-04-30T20:57:20.818Z,18.20
2023-04-30T21:00:23.886Z,12.57
2023-04-30T21:03:28.420Z,15.63
2023-04-30T21:06:31.992Z,16.13
2023-04-30T21:09:35.781Z,14.30
2023-04-30T21:12:38.863Z,17.87
2023-04-30T21:15:43.077Z,17.83
2023-04-30T21:18:48.809Z,18.40
2023-04-30T21:21:51.844Z,19.30
2023-04-30T21:24:55.061Z,20.30
2023-04-30T21:27:58.299Z,23.07
2023-04-30T21:31:07.324Z,19.30
2023-04-30T21:34:11.844Z,17.13
2023-04-30T21:37:17.193Z,21.30
2023-04-30T21:40:20.657Z,20.40
2023-04-30T21:43:23.722Z,27.60
2023-04-30T21:46:26.800Z,29.03
2023-04-30T21:49:31.307Z,31.43
2023-04-30T21:52:34.373Z,24.57
2023-04-30T21:55:37.390Z,24.37
2023-04-30T21:58:40.732Z,18.27
2023-04-30T22:01:43.765Z,17.50
2023-04-30T22:04:48.204Z,12.50
2023-04-30T22:07:51.272Z,14.50
2023-04-30T22:10:58.788Z,14.97
2023-04-30T22:14:01.867Z,13.03
2023-04-30T22:17:05.102Z,12.50
2023-04-30T22:20:10.821Z,12.20
2023-04-30T22:23:13.813Z,12.23
2023-04-30T22:26:16.762Z,10.10
2023-04-30T22:29:19.764Z,13.70
2023-04-30T22:32:22.808Z,11.23
2023-04-30T22:35:28.729Z,13.67
2023-04-30T22:38:32.255Z,11.93
2023-04-30T22:41:35.381Z,12.87
2023-04-30T22:44:38.711Z,13.50
2023-04-30T22:47:43.028Z,10.73
2023-04-30T22:50:47.837Z,13.23
2023-04-30T22:53:50.996Z,13.63
2023-04-30T22:56:55.062Z,15.67
2023-04-30T22:59:58.348Z,15.23
2023-04-30T23:03:01.689Z,14.37
2023-04-30T23:06:06.913Z,10.83
2023-04-30T23:09:10.288Z,17.87
2023-04-30T23:12:13.556Z,12.13
2023-04-30T23:15:17.908Z,15.40
2023-04-30T23:18:21.455Z,12.40
2023-04-30T23:21:26.768Z,11.80
2023-04-30T23:24:35.054Z,11.90
2023-04-30T23:27:38.112Z,13.63
2023-04-30T23:30:41.368Z,11.33
2023-04-30T23:33:44.513Z,11.93
2023-04-30T23:36:48.879Z,12.40
2023-04-30T23:39:51.977Z,13.17
2023-04-30T23:42:54.935Z,13.50
2023-04-30T23:45:58.221Z,13.63
2023-04-30T23:49:01.262Z,17.07
2023-04-30T23:52:06.232Z,9.80
2023-04-30T23:55:12.405Z,12.00
2023-04-30T23:58:15.526Z,9.77
